Aeroporto :
LOGIN :

Iscrizione | Disclaimer

   EN    FR    IT 

 










Sommario :    VFR   VFR Marginale   IFR   IFR Intensivo   IFR Molto Intensivo
Visibilità : 
Base nubi : 
>= 8 km
>= 3000ft
5 / 8 km
1000 / 3000 ft
1500m / 5 km
500 / 1000 ft
800 / 1500m
200 / 500 ft
< 800m
< 200 ft
Simboli :   Temporali  Nebbia  Neve Forte  Precipitazioni Forti  Vento > 20 kt
SIGMETs :   Varie  Temporali  Ghiacco  Turbolenza  Onda orograficha  Ceneri Vulcaniche






- Altitudine del aeroporto : 1106 ft


LFSO - Nancy / Ochey

ULTIMO METAR :
  • 220430Z AUTO 13003KT 9999 BKN011 OVC016 15/14 Q1011 TEMPO 3000 SHRA BKN009 SCT030TCU BECMG 26010KT

METARs OBSOLETI :
  • 220400Z AUTO 10003KT 9999 OVC013 15/14 Q1011 BECMG 26010KT NSC
  • 220330Z AUTO VRB01KT 9999 SCT014 BKN100 BKN250 14/14 Q1011 NOSIG
  • 220300Z AUTO 11005KT CAVOK 15/14 Q1010 BECMG 26010KT
  • 220230Z AUTO 10003KT 060V140 CAVOK 15/14 Q1010 BECMG 26010KT
  • 220200Z AUTO 13006KT CAVOK 15/14 Q1010 BECMG 26010KT
  • 220130Z AUTO 14006KT CAVOK 15/14 Q1010 BECMG 26010KT

TAF TAF LFSO
Valido dal 21 a 15 ore il 22 a 15 ore UTC


211400Z 2115/2215 26010KT CAVOK
TEMPO 2117/2120 2500 TSRA BKN050CB
TEMPO 2200/2203 VRB03KT
TEMPO 2206/2212 3000 SHRA BKN009 SCT030TCU



MetMap, La meteo Aeronautica in un colpo d'occhio ! - Copyright ORBIFLY Dicembre 2007 - Disclaimer

ORBIFLY MET'MAP TEAM :

Programmazione e sviluppo : Alexandra Zaïnal
Concezione : Baudouin d'Aumeries
Aiuto per la programmazione : Marc-Olivier Méhu
Supporto tecnico e logistico : Manuel Goepfert
Aiuto per la traduzione : Arnaldo La Scala

Contatto : metmap@orbifly.com




FONTI E CREDITI :

   NOAA